| time (UTC) | temp F | wind direction | speed knots | gust knots | rain 1hr in | rain 24hr in | rain mn in | humidity % | barometer mb |
| 20260508023008 | 49 | 311 | 0.0 | 2.6 | 0.00 | 0.00 | 0.00 | 42 | 1012.9 |
| 20260508021507 | 49 | 311 | 0.9 | 4.3 | 0.00 | 0.00 | 0.00 | 40 | 1012.6 |
| 20260508020007 | 49 | 317 | 0.9 | 3.5 | 0.00 | 0.00 | 0.00 | 39 | 1012.5 |
| 20260508014508 | 50 | 282 | 1.7 | 6.1 | 0.00 | 0.00 | 0.00 | 38 | 1012.5 |
| 20260508013006 | 50 | 329 | 1.7 | 3.5 | 0.00 | 0.00 | 0.00 | 37 | 1012.4 |
| 20260508011505 | 51 | 312 | 1.7 | 7.0 | 0.00 | 0.00 | 0.00 | 35 | 1012.1 |
| 20260508010004 | 51 | 321 | 1.7 | 9.6 | 0.00 | 0.00 | 0.00 | 34 | 1011.8 |
| 20260508004504 | 52 | 323 | 4.3 | 8.7 | 0.00 | 0.00 | 0.00 | 33 | 1011.5 |
| 20260508003002 | 53 | 304 | 4.3 | 13.0 | 0.00 | 0.00 | 0.00 | 32 | 1011.2 |
| 20260508001502 | 54 | 298 | 6.1 | 13.0 | 0.00 | 0.00 | 0.00 | 32 | 1011.0 |
| 20260508000002 | 54 | 314 | 6.1 | 13.0 | 0.00 | 0.00 | 0.00 | 31 | 1010.7 |
| 20260507234501 | 55 | 286 | 6.1 | 12.2 | 0.00 | 0.00 | 0.00 | 30 | 1010.6 |
| 20260507233100 | 56 | 325 | 5.2 | 14.8 | 0.00 | 0.00 | 0.00 | 30 | 1010.5 |
| 20260507231601 | 56 | 327 | 7.0 | 16.5 | 0.00 | 0.00 | 0.00 | 29 | 1010.3 |
| 20260507230105 | 57 | 279 | 6.1 | 10.4 | 0.00 | 0.00 | 0.00 | 27 | 1010.2 |
| 20260507224608 | 58 | 316 | 7.0 | 13.9 | 0.00 | 0.00 | 0.00 | 26 | 1009.9 |
| 20260507223057 | 58 | 267 | 5.2 | 11.3 | 0.00 | 0.00 | 0.00 | 28 | 1010.0 |
| 20260507221559 | 57 | 300 | 6.1 | 13.0 | 0.00 | 0.00 | 0.00 | 27 | 1009.8 |
| 20260507220056 | 57 | 236 | 5.2 | 11.3 | 0.00 | 0.00 | 0.00 | 27 | 1009.7 |
| 20260507214605 | 58 | 289 | 6.1 | 16.5 | 0.00 | 0.00 | 0.00 | 26 | 1009.4 |
| 20260507213057 | 58 | 300 | 7.0 | 16.5 | 0.00 | 0.00 | 0.00 | 24 | 1009.2 |
| 20260507211556 | 58 | 355 | 3.5 | 10.4 | 0.00 | 0.00 | 0.00 | 26 | 1009.5 |
| 20260507210100 | 58 | 277 | 8.7 | 13.0 | 0.00 | 0.00 | 0.00 | 26 | 1009.2 |
| 20260507204553 | 58 | 269 | 3.5 | 13.9 | 0.00 | 0.00 | 0.00 | 26 | 1009.2 |
| 20260507203106 | 58 | 307 | 7.8 | 13.9 | 0.00 | 0.00 | 0.00 | 25 | 1009.1 |
| 20260507201559 | 58 | 281 | 5.2 | 13.9 | 0.00 | 0.00 | 0.00 | 26 | 1009.1 |
| 20260507200104 | 58 | 290 | 6.1 | 14.8 | 0.00 | 0.00 | 0.00 | 26 | 1009.3 |
| 20260507194549 | 57 | 268 | 2.6 | 14.8 | 0.00 | 0.00 | 0.00 | 27 | 1009.5 |
| 20260507193049 | 58 | 227 | 3.5 | 15.6 | 0.00 | 0.00 | 0.00 | 26 | 1009.6 |
| 20260507191547 | 58 | 314 | 6.1 | 16.5 | 0.00 | 0.00 | 0.00 | 26 | 1009.8 |
| 20260507190048 | 58 | 263 | 5.2 | 13.9 | 0.00 | 0.00 | 0.00 | 27 | 1009.7 |
| 20260507184551 | 57 | 274 | 4.3 | 13.9 | 0.00 | 0.00 | 0.00 | 29 | 1009.7 |
| 20260507183047 | 58 | 231 | 9.6 | 18.2 | 0.00 | 0.00 | 0.00 | 27 | 1009.8 |
| 20260507181539 | 58 | 176 | 9.6 | 14.8 | 0.00 | 0.00 | 0.00 | 28 | 1010.0 |
| 20260507180040 | 57 | 291 | 7.8 | 13.0 | 0.00 | 0.00 | 0.00 | 30 | 1010.3 |
| 20260507174538 | 58 | 267 | 3.5 | 8.7 | 0.00 | 0.00 | 0.00 | 31 | 1010.3 |
| 20260507173036 | 57 | 282 | 5.2 | 10.4 | 0.00 | 0.00 | 0.00 | 32 | 1010.6 |
| 20260507171633 | 57 | 246 | 4.3 | 10.4 | 0.00 | 0.00 | 0.00 | 32 | 1010.6 |
| 20260507170036 | 57 | 212 | 2.6 | 8.7 | 0.00 | 0.00 | 0.00 | 34 | 1010.8 |
| 20260507164531 | 56 | 315 | 6.1 | 13.9 | 0.00 | 0.00 | 0.00 | 32 | 1010.8 |
| 20260507163025 | 56 | 267 | 4.3 | 7.8 | 0.00 | 0.00 | 0.00 | 34 | 1011.2 |
| 20260507161524 | 55 | 217 | 10.4 | 16.5 | 0.00 | 0.00 | 0.00 | 33 | 1011.3 |
| 20260507160022 | 56 | 226 | 7.0 | 13.0 | 0.00 | 0.00 | 0.00 | 31 | 1011.4 |
| 20260507154520 | 56 | 296 | 6.1 | 12.2 | 0.00 | 0.00 | 0.00 | 31 | 1011.5 |
| 20260507153017 | 56 | 267 | 2.6 | 9.6 | 0.00 | 0.00 | 0.00 | 33 | 1011.6 |
| 20260507151514 | 53 | 232 | 5.2 | 11.3 | 0.00 | 0.00 | 0.00 | 34 | 1012.0 |
| 20260507150020 | 54 | 319 | 7.0 | 12.2 | 0.00 | 0.00 | 0.00 | 34 | 1012.0 |
| 20260507144519 | 53 | 261 | 4.3 | 11.3 | 0.00 | 0.00 | 0.00 | 38 | 1012.4 |
| 20260507143002 | 53 | 273 | 2.6 | 13.0 | 0.00 | 0.00 | 0.00 | 40 | 1012.4 |
| 20260507141602 | 53 | 287 | 5.2 | 11.3 | 0.00 | 0.00 | 0.00 | 42 | 1012.7 |
| 20260507140056 | 51 | 267 | 6.1 | 10.4 | 0.00 | 0.00 | 0.00 | 43 | 1013.0 |
| 20260507134550 | 52 | 218 | 3.5 | 7.8 | 0.00 | 0.01 | 0.00 | 49 | 1013.0 |
| 20260507133100 | 50 | 232 | 1.7 | 6.1 | 0.00 | 0.01 | 0.00 | 53 | 1013.1 |
| 20260507131550 | 50 | 221 | 1.7 | 4.3 | 0.00 | 0.01 | 0.00 | 55 | 1013.2 |
| 20260507130051 | 48 | 241 | 1.7 | 5.2 | 0.00 | 0.01 | 0.00 | 57 | 1013.2 |
| 20260507124533 | 48 | 242 | 0.9 | 3.5 | 0.00 | 0.02 | 0.00 | 59 | 1013.3 |
| 20260507123029 | 47 | 256 | 0.9 | 2.6 | 0.00 | 0.02 | 0.00 | 62 | 1013.1 |
| 20260507121525 | 45 | 268 | 1.7 | 3.5 | 0.00 | 0.02 | 0.00 | 63 | 1013.3 |
| 20260507120024 | 44 | 269 | 1.7 | 5.2 | 0.00 | 0.02 | 0.00 | 66 | 1013.1 |
| 20260507114517 | 43 | 310 | 0.9 | 2.6 | 0.00 | 0.07 | 0.00 | 67 | 1013.3 |
| 20260507113015 | 43 | 346 | 0.0 | 0.9 | 0.00 | 0.07 | 0.00 | 68 | 1013.1 |
| 20260507111509 | 41 | 346 | 0.0 | 0.9 | 0.00 | 0.07 | 0.00 | 69 | 1012.8 |
| 20260507110005 | 41 | 346 | 0.0 | 0.0 | 0.00 | 0.16 | 0.00 | 68 | 1012.8 |
| 20260507104601 | 40 | 346 | 0.0 | 0.0 | 0.00 | 0.16 | 0.00 | 68 | 1012.7 |
| 20260507103058 | 40 | 346 | 0.0 | 0.0 | 0.00 | 0.16 | 0.00 | 68 | 1012.4 |
| 20260507101603 | 40 | 346 | 0.0 | 0.9 | 0.00 | 0.16 | 0.00 | 67 | 1012.4 |
| 20260507100057 | 41 | 346 | 0.0 | 0.0 | 0.00 | 0.16 | 0.00 | 68 | 1012.5 |
| 20260507094552 | 41 | 346 | 0.0 | 0.0 | 0.00 | 0.28 | 0.00 | 67 | 1012.4 |
| 20260507093051 | 41 | 346 | 0.0 | 0.9 | 0.00 | 0.28 | 0.00 | 66 | 1012.4 |
| 20260507091550 | 41 | 346 | 0.0 | 0.0 | 0.00 | 0.28 | 0.00 | 64 | 1012.5 |
| 20260507090049 | 41 | 346 | 0.0 | 0.9 | 0.00 | 0.28 | 0.00 | 63 | 1012.4 |
| 20260507084556 | 42 | 346 | 0.0 | 0.0 | 0.00 | 0.39 | 0.00 | 62 | 1012.5 |
| 20260507083047 | 42 | 346 | 0.0 | 0.0 | 0.00 | 0.39 | 0.00 | 62 | 1012.4 |
| 20260507081546 | 42 | 346 | 0.0 | 0.0 | 0.00 | 0.39 | 0.00 | 62 | 1012.4 |
| 20260507080048 | 43 | 346 | 0.0 | 0.0 | 0.00 | 0.39 | 0.00 | 61 | 1012.4 |
| 20260507074542 | 43 | 346 | 0.0 | 0.0 | 0.00 | 0.39 | 0.00 | 60 | 1012.4 |
| 20260507073040 | 44 | 346 | 0.0 | 0.0 | 0.00 | 0.39 | 0.00 | 60 | 1012.4 |
| 20260507071539 | 44 | 346 | 0.0 | 0.9 | 0.00 | 0.39 | 0.00 | 61 | 1012.6 |
| 20260507070039 | 43 | 346 | 0.0 | 0.9 | 0.00 | 0.39 | 0.00 | 62 | 1012.6 |
| 20260507064538 | 43 | 346 | 0.0 | 0.9 | 0.00 | 0.43 | 0.00 | 63 | 1012.5 |
| 20260507063037 | 43 | 346 | 0.0 | 0.0 | 0.00 | 0.43 | 0.00 | 61 | 1012.7 |
| 20260507061535 | 44 | 346 | 0.0 | 0.0 | 0.00 | 0.43 | 0.00 | 61 | 1012.6 |
| 20260507060031 | 45 | 346 | 0.0 | 1.7 | 0.00 | 0.43 | 0.00 | 60 | 1012.6 |
| 20260507054536 | 45 | 346 | 0.0 | 2.6 | 0.00 | 0.47 | 0.00 | 59 | 1012.7 |
| 20260507053026 | 46 | 346 | 0.9 | 3.5 | 0.00 | 0.47 | 0.00 | 58 | 1012.8 |
| 20260507051529 | 46 | 347 | 0.9 | 3.5 | 0.00 | 0.47 | 0.00 | 57 | 1013.2 |
| 20260507050027 | 46 | 350 | 0.9 | 4.3 | 0.00 | 0.47 | 0.00 | 56 | 1013.2 |
| 20260507044521 | 46 | 346 | 0.9 | 1.7 | 0.00 | 0.48 | 0.00 | 55 | 1013.2 |
| 20260507043023 | 47 | 346 | 0.9 | 2.6 | 0.00 | 0.48 | 0.00 | 54 | 1013.1 |
| 20260507041518 | 47 | 11 | 0.9 | 3.5 | 0.00 | 0.48 | 0.00 | 55 | 1013.2 |
| 20260507040014 | 47 | 11 | 0.9 | 2.6 | 0.00 | 0.48 | 0.00 | 55 | 1013.0 |
| 20260507034513 | 47 | 13 | 0.9 | 2.6 | 0.00 | 0.48 | 0.48 | 55 | 1012.8 |
| 20260507033011 | 47 | 17 | 0.9 | 3.5 | 0.00 | 0.48 | 0.48 | 55 | 1012.9 |
| 20260507031511 | 47 | 360 | 0.0 | 3.5 | 0.00 | 0.48 | 0.48 | 55 | 1012.8 |
| 20260507030009 | 48 | 5 | 0.0 | 0.0 | 0.00 | 0.48 | 0.48 | 54 | 1012.4 |
| 20260507024511 | 48 | 5 | 0.0 | 2.6 | 0.00 | 0.48 | 0.48 | 54 | 1012.4 |